createdAt,value
2023-02-13T00:01:55.454Z,28.00
2023-02-13T00:04:26.383Z,26.00
2023-02-13T00:06:57.370Z,23.67
2023-02-13T00:09:28.606Z,32.17
2023-02-13T00:11:59.553Z,37.20
2023-02-13T00:14:30.633Z,29.63
2023-02-13T00:17:01.488Z,24.03
2023-02-13T00:19:32.617Z,23.60
2023-02-13T00:22:03.510Z,26.67
2023-02-13T00:24:34.563Z,23.80
2023-02-13T00:27:05.727Z,23.17
2023-02-13T00:29:36.610Z,25.13
2023-02-13T00:32:08.087Z,24.97
2023-02-13T00:34:39.401Z,24.40
2023-02-13T00:37:10.500Z,26.27
2023-02-13T00:39:41.727Z,25.73
2023-02-13T00:42:12.685Z,24.00
2023-02-13T00:44:43.559Z,26.13
2023-02-13T00:47:15.031Z,24.60
2023-02-13T00:49:46.187Z,22.40
2023-02-13T00:52:17.222Z,32.13
2023-02-13T00:54:48.549Z,25.23
2023-02-13T00:57:19.536Z,23.60
2023-02-13T00:59:51.193Z,22.07
2023-02-13T01:02:23.072Z,21.83
2023-02-13T01:04:54.068Z,22.03
2023-02-13T01:07:25.385Z,23.23
2023-02-13T01:09:56.181Z,23.23
2023-02-13T01:12:27.044Z,23.83
2023-02-13T01:14:57.954Z,24.33
2023-02-13T01:17:28.971Z,25.57
2023-02-13T01:20:00.150Z,28.23
2023-02-13T01:22:31.149Z,30.30
2023-02-13T01:25:02.097Z,25.67
2023-02-13T01:27:33.451Z,25.70
2023-02-13T01:30:04.742Z,19.73
2023-02-13T01:32:35.681Z,24.10
2023-02-13T01:35:07.189Z,21.57
2023-02-13T01:37:39.244Z,26.73
2023-02-13T01:40:14.243Z,20.90
2023-02-13T01:42:45.315Z,24.77
2023-02-13T01:45:27.622Z,23.87
2023-02-13T01:48:01.567Z,21.30
2023-02-13T01:50:35.519Z,20.93
2023-02-13T01:53:09.263Z,20.87
2023-02-13T01:55:43.576Z,22.83
2023-02-13T01:58:18.779Z,23.80
2023-02-13T02:01:09.609Z,24.27
2023-02-13T02:03:43.363Z,19.63
2023-02-13T02:06:18.146Z,23.23
2023-02-13T02:08:51.637Z,22.90
2023-02-13T02:11:26.771Z,23.13
2023-02-13T02:13:59.368Z,21.03
2023-02-13T02:16:30.635Z,21.53
2023-02-13T02:19:02.881Z,25.00
2023-02-13T02:25:13.479Z,24.63
2023-02-13T02:28:06.654Z,25.93
2023-02-13T02:33:58.959Z,22.47
2023-02-13T02:36:37.801Z,23.43
2023-02-13T02:39:12.927Z,26.20
2023-02-13T02:41:51.968Z,25.97
2023-02-13T02:44:33.215Z,23.97
2023-02-13T02:47:31.938Z,25.67
2023-02-13T02:50:09.406Z,21.47
2023-02-13T02:52:47.134Z,20.37
2023-02-13T02:55:25.536Z,21.57
2023-02-13T02:58:17.060Z,23.53
2023-02-13T03:01:07.508Z,23.57
2023-02-13T03:03:57.328Z,23.97
2023-02-13T03:06:31.652Z,21.67
2023-02-13T03:09:23.276Z,26.13
2023-02-13T03:12:13.903Z,21.33
2023-02-13T03:14:45.731Z,24.23
2023-02-13T03:17:37.256Z,23.40
2023-02-13T03:20:38.404Z,24.93
2023-02-13T03:23:18.161Z,22.57
2023-02-13T03:26:11.322Z,21.90
2023-02-13T03:29:02.959Z,21.77
2023-02-13T03:31:38.016Z,23.20
2023-02-13T03:34:11.520Z,21.50
2023-02-13T03:37:07.083Z,23.23
2023-02-13T03:39:48.158Z,20.37
2023-02-13T03:42:22.403Z,22.17
2023-02-13T03:45:15.844Z,25.00
2023-02-13T03:47:49.124Z,23.27
2023-02-13T03:50:21.459Z,21.07
2023-02-13T03:52:55.158Z,23.23
2023-02-13T03:55:46.548Z,20.47
2023-02-13T03:58:38.050Z,21.30
2023-02-13T04:01:11.979Z,21.67
2023-02-13T04:03:46.480Z,25.50
2023-02-13T04:06:20.594Z,21.80
2023-02-13T04:08:51.586Z,24.33
2023-02-13T04:11:25.546Z,19.37
2023-02-13T04:13:58.722Z,21.73
2023-02-13T04:16:34.432Z,22.73
2023-02-13T04:19:06.501Z,23.43
2023-02-13T04:21:38.226Z,22.53
2023-02-13T04:24:10.602Z,18.07
2023-02-13T04:26:44.023Z,25.03
2023-02-13T04:29:15.175Z,22.80
2023-02-13T04:31:46.353Z,21.17
2023-02-13T04:34:17.629Z,22.07
2023-02-13T04:36:48.554Z,19.53
2023-02-13T04:39:19.650Z,27.23
2023-02-13T04:41:50.650Z,26.60
2023-02-13T04:44:21.568Z,23.37
2023-02-13T04:46:52.714Z,26.50
2023-02-13T04:49:23.824Z,22.17
2023-02-13T04:51:54.899Z,23.30
2023-02-13T04:54:25.826Z,21.80
2023-02-13T04:56:56.742Z,24.13
2023-02-13T04:59:27.869Z,19.97
2023-02-13T05:01:59.473Z,23.03
2023-02-13T05:04:30.783Z,20.83
2023-02-13T05:07:01.802Z,25.23
2023-02-13T05:09:32.785Z,19.92
2023-02-13T05:12:03.797Z,25.80
2023-02-13T05:17:12.333Z,26.33
2023-02-13T05:19:43.324Z,23.97
2023-02-13T05:22:32.182Z,22.73
2023-02-13T05:27:41.555Z,21.67
2023-02-13T05:30:15.380Z,23.57
2023-02-13T05:32:46.351Z,23.00
2023-02-13T05:35:17.460Z,22.60
2023-02-13T05:37:48.380Z,17.33
2023-02-13T05:40:21.314Z,23.43
2023-02-13T05:42:53.908Z,19.30
2023-02-13T05:45:25.024Z,21.20
2023-02-13T05:47:56.274Z,17.47
2023-02-13T05:50:27.274Z,18.97
2023-02-13T05:52:58.103Z,21.73
2023-02-13T05:55:29.312Z,21.33
2023-02-13T05:58:00.431Z,20.23
2023-02-13T06:00:31.411Z,18.40
2023-02-13T06:03:02.405Z,19.03
2023-02-13T06:05:33.526Z,17.43
2023-02-13T06:08:04.778Z,18.97
2023-02-13T06:10:36.297Z,20.20
2023-02-13T06:13:07.575Z,19.93
2023-02-13T06:15:38.528Z,18.07
2023-02-13T06:18:28.155Z,19.83
2023-02-13T06:20:59.870Z,16.33
2023-02-13T06:23:31.517Z,14.23
2023-02-13T06:26:06.942Z,28.27
2023-02-13T06:28:38.456Z,20.23
2023-02-13T06:31:09.471Z,18.07
2023-02-13T06:33:40.603Z,20.47
2023-02-13T06:36:11.833Z,38.27
2023-02-13T06:38:43.303Z,58.70
2023-02-13T06:41:14.665Z,48.37
2023-02-13T06:43:45.687Z,59.87
2023-02-13T06:46:16.870Z,60.73
2023-02-13T06:48:48.452Z,58.30
2023-02-13T06:51:19.565Z,58.23
2023-02-13T06:53:50.682Z,52.83
2023-02-13T06:56:21.982Z,54.47
2023-02-13T06:58:53.113Z,48.73
2023-02-13T07:01:24.176Z,55.73
2023-02-13T07:03:55.282Z,43.93
2023-02-13T07:06:26.535Z,47.50
2023-02-13T07:11:42.399Z,45.80
2023-02-13T07:14:13.486Z,42.77
2023-02-13T07:16:46.133Z,48.67
2023-02-13T07:19:17.478Z,51.27
2023-02-13T07:21:48.468Z,54.30
2023-02-13T07:24:19.608Z,36.53
2023-02-13T07:26:50.801Z,33.10
2023-02-13T07:29:21.908Z,39.00
2023-02-13T07:31:53.195Z,43.17
2023-02-13T07:34:24.557Z,44.17
2023-02-13T07:36:55.940Z,42.07
2023-02-13T07:39:27.000Z,41.10
2023-02-13T07:41:58.822Z,33.03
2023-02-13T07:44:29.971Z,29.67
2023-02-13T07:47:02.207Z,41.13
2023-02-13T07:49:33.466Z,44.10
2023-02-13T07:52:04.664Z,45.83
2023-02-13T07:54:35.739Z,45.97
2023-02-13T07:57:07.840Z,38.87
2023-02-13T07:59:38.819Z,38.97
2023-02-13T08:02:14.616Z,39.93
2023-02-13T08:04:47.125Z,38.57
2023-02-13T08:07:18.966Z,43.97
2023-02-13T08:10:07.831Z,35.93
2023-02-13T08:12:39.759Z,37.67
2023-02-13T08:15:13.600Z,36.30
2023-02-13T08:17:50.434Z,37.10
2023-02-13T08:20:22.195Z,53.37
2023-02-13T08:22:53.384Z,57.80
2023-02-13T08:25:24.447Z,57.17
2023-02-13T08:27:55.711Z,65.50
2023-02-13T08:30:26.931Z,66.87
2023-02-13T08:32:57.987Z,67.60
2023-02-13T08:35:31.954Z,68.97
2023-02-13T08:38:06.004Z,61.57
2023-02-13T08:40:37.416Z,47.50
2023-02-13T08:43:09.386Z,68.87
2023-02-13T08:45:40.306Z,59.43
2023-02-13T08:48:11.129Z,50.13
2023-02-13T08:50:42.236Z,48.57
2023-02-13T08:53:13.315Z,47.77
2023-02-13T08:55:44.217Z,46.80
2023-02-13T08:58:15.429Z,45.23
2023-02-13T09:00:46.509Z,45.33
2023-02-13T09:03:17.863Z,40.37
2023-02-13T09:05:48.916Z,36.03
2023-02-13T09:08:19.967Z,44.87
2023-02-13T09:10:53.932Z,39.20
2023-02-13T09:13:25.068Z,49.20
2023-02-13T09:15:59.018Z,43.07
2023-02-13T09:18:49.937Z,42.90
2023-02-13T09:21:22.938Z,41.40
2023-02-13T09:23:55.438Z,34.10
2023-02-13T09:26:26.409Z,30.70
2023-02-13T09:28:57.482Z,30.97
2023-02-13T09:31:29.757Z,35.20
2023-02-13T09:34:00.793Z,37.53
2023-02-13T09:36:33.355Z,32.47
2023-02-13T09:39:04.459Z,31.70
2023-02-13T09:41:38.030Z,33.67
2023-02-13T09:44:13.221Z,26.63
2023-02-13T09:46:46.075Z,31.50
2023-02-13T09:49:19.982Z,30.97
2023-02-13T09:51:54.357Z,35.53
2023-02-13T09:54:26.772Z,34.03
2023-02-13T09:57:01.886Z,27.30
2023-02-13T09:59:49.998Z,28.90
2023-02-13T10:02:53.723Z,28.77
2023-02-13T10:05:38.118Z,24.97
2023-02-13T10:08:12.730Z,32.67
2023-02-13T10:10:47.832Z,33.57
2023-02-13T10:13:26.908Z,26.63
2023-02-13T10:16:02.976Z,26.33
2023-02-13T10:21:17.909Z,28.27
2023-02-13T10:23:51.783Z,28.97
2023-02-13T10:26:27.500Z,29.00
2023-02-13T10:29:18.607Z,28.40
2023-02-13T10:31:52.795Z,30.77
2023-02-13T10:34:26.716Z,25.00
2023-02-13T10:36:57.984Z,31.33
2023-02-13T10:39:30.657Z,28.63
2023-02-13T10:42:05.807Z,28.60
2023-02-13T10:44:43.186Z,43.70
2023-02-13T10:50:07.386Z,38.23
2023-02-13T10:52:45.544Z,40.17
2023-02-13T10:58:10.774Z,37.00
2023-02-13T11:00:45.573Z,40.00
2023-02-13T11:03:22.472Z,41.63
2023-02-13T11:05:54.541Z,40.13
2023-02-13T11:08:27.605Z,40.07
2023-02-13T11:10:58.730Z,29.10
2023-02-13T11:13:50.518Z,30.37
2023-02-13T11:16:21.933Z,29.23
2023-02-13T11:18:53.723Z,39.30
2023-02-13T11:21:27.114Z,33.63
2023-02-13T11:23:59.075Z,31.80
2023-02-13T11:29:19.146Z,25.60
2023-02-13T11:31:51.658Z,29.17
2023-02-13T11:34:28.007Z,33.07
2023-02-13T11:39:51.416Z,28.23
2023-02-13T11:42:29.176Z,25.03
2023-02-13T11:45:03.918Z,29.10
2023-02-13T11:47:40.998Z,29.90
2023-02-13T11:50:26.550Z,28.53
2023-02-13T11:53:00.285Z,24.37
2023-02-13T11:55:34.557Z,23.90
2023-02-13T11:58:07.854Z,27.97
2023-02-13T12:00:41.776Z,24.27
2023-02-13T12:03:30.420Z,27.93
2023-02-13T12:06:08.155Z,26.97
2023-02-13T12:08:40.655Z,29.37
2023-02-13T12:11:18.390Z,29.83
2023-02-13T12:13:50.311Z,28.80
2023-02-13T12:16:25.318Z,30.47
2023-02-13T12:18:59.737Z,37.90
2023-02-13T12:21:40.811Z,31.47
2023-02-13T12:24:16.545Z,29.30
2023-02-13T12:26:49.880Z,27.63
2023-02-13T12:29:36.276Z,28.90
2023-02-13T12:32:14.464Z,27.43
2023-02-13T12:35:09.075Z,26.00
2023-02-13T12:37:54.932Z,26.80
2023-02-13T12:40:38.522Z,29.07
2023-02-13T12:43:26.198Z,24.10
2023-02-13T12:46:00.039Z,24.80
2023-02-13T12:51:25.058Z,29.83
2023-02-13T12:54:15.809Z,24.97
2023-02-13T12:57:03.340Z,29.13
2023-02-13T12:59:41.134Z,23.90
2023-02-13T13:02:50.885Z,24.17
2023-02-13T13:05:38.019Z,22.57
2023-02-13T13:08:17.646Z,22.80
2023-02-13T13:10:59.102Z,24.47
2023-02-13T13:13:41.034Z,22.70
2023-02-13T13:19:04.631Z,23.10
2023-02-13T13:21:42.115Z,21.40
2023-02-13T13:24:19.791Z,20.53
2023-02-13T13:26:54.552Z,22.33
2023-02-13T13:29:28.131Z,24.33
2023-02-13T13:32:02.255Z,22.73
2023-02-13T13:34:35.672Z,19.73
2023-02-13T13:37:11.723Z,21.53
2023-02-13T13:39:47.668Z,26.43
2023-02-13T13:42:22.030Z,21.87
2023-02-13T13:45:07.730Z,19.40
2023-02-13T13:47:51.106Z,18.77
2023-02-13T13:50:25.125Z,18.13
2023-02-13T13:53:18.997Z,18.93
2023-02-13T13:58:45.016Z,18.27
2023-02-13T14:01:29.447Z,17.70
2023-02-13T14:04:02.591Z,21.63
2023-02-13T14:06:55.376Z,16.83
2023-02-13T14:09:44.650Z,16.13
2023-02-13T14:12:45.298Z,17.43
2023-02-13T14:15:53.238Z,16.87
2023-02-13T14:18:27.133Z,17.10
2023-02-13T14:21:00.748Z,16.87
2023-02-13T14:23:42.222Z,18.17
2023-02-13T14:26:38.837Z,20.37
2023-02-13T14:29:34.916Z,20.93
2023-02-13T14:32:23.957Z,19.20
2023-02-13T14:34:58.079Z,16.73
2023-02-13T14:37:39.760Z,15.37
2023-02-13T14:40:49.255Z,16.47
2023-02-13T14:43:35.510Z,20.63
2023-02-13T14:49:15.654Z,15.83
2023-02-13T14:51:51.457Z,16.67
2023-02-13T14:54:28.696Z,14.93
2023-02-13T14:57:05.117Z,16.67
2023-02-13T14:59:37.824Z,16.95
2023-02-13T15:02:17.472Z,17.10
2023-02-13T15:04:51.181Z,15.80
2023-02-13T15:07:24.927Z,16.37
2023-02-13T15:09:58.103Z,17.20
2023-02-13T15:12:32.142Z,21.87
2023-02-13T15:15:05.977Z,19.47
2023-02-13T15:17:40.392Z,18.63
2023-02-13T15:20:21.621Z,17.03
2023-02-13T15:22:53.025Z,21.27
2023-02-13T15:25:33.335Z,16.03
2023-02-13T15:28:06.099Z,17.27
2023-02-13T15:30:39.072Z,20.03
2023-02-13T15:33:19.359Z,21.77
2023-02-13T15:35:56.817Z,16.47
2023-02-13T15:38:30.787Z,19.73
2023-02-13T15:41:05.475Z,16.57
2023-02-13T15:43:39.609Z,19.87
2023-02-13T15:46:22.084Z,17.60
2023-02-13T15:48:53.570Z,19.00
2023-02-13T15:51:26.853Z,17.90
2023-02-13T15:53:59.931Z,18.57
2023-02-13T15:56:31.980Z,16.17
2023-02-13T15:59:04.805Z,20.07
2023-02-13T16:01:36.055Z,17.37
2023-02-13T16:04:10.205Z,17.53
2023-02-13T16:06:42.126Z,22.20
2023-02-13T16:09:27.395Z,20.83
2023-02-13T16:12:07.032Z,20.97
2023-02-13T16:14:40.830Z,26.43
2023-02-13T16:17:17.009Z,21.20
2023-02-13T16:19:55.050Z,20.57
2023-02-13T16:22:34.056Z,21.47
2023-02-13T16:25:21.695Z,21.80
2023-02-13T16:27:54.469Z,20.93
2023-02-13T16:30:35.608Z,20.40
2023-02-13T16:33:25.676Z,18.10
2023-02-13T16:35:58.149Z,21.27
2023-02-13T16:38:34.873Z,19.47
2023-02-13T16:41:08.183Z,23.13
2023-02-13T16:43:47.292Z,17.07
2023-02-13T16:46:38.156Z,19.40
2023-02-13T16:49:20.837Z,18.37
2023-02-13T16:51:58.761Z,23.10
2023-02-13T16:54:38.638Z,21.70
2023-02-13T16:57:21.551Z,22.60
2023-02-13T16:59:56.910Z,19.00
2023-02-13T17:02:29.090Z,18.33
2023-02-13T17:05:02.990Z,18.80
2023-02-13T17:07:35.962Z,20.23
2023-02-13T17:10:09.837Z,15.70
2023-02-13T17:12:41.240Z,19.03
2023-02-13T17:15:15.901Z,24.87
2023-02-13T17:17:47.425Z,23.33
2023-02-13T17:20:20.901Z,19.37
2023-02-13T17:22:54.068Z,21.27
2023-02-13T17:25:26.387Z,19.67
2023-02-13T17:27:58.851Z,20.47
2023-02-13T17:30:31.471Z,21.30
2023-02-13T17:33:07.121Z,21.27
2023-02-13T17:35:38.253Z,19.40
2023-02-13T17:38:10.946Z,19.83
2023-02-13T17:40:44.296Z,27.90
2023-02-13T17:43:18.467Z,24.87
2023-02-13T17:45:50.440Z,21.20
2023-02-13T17:48:24.262Z,20.43
2023-02-13T17:50:55.205Z,21.23
2023-02-13T17:53:30.033Z,23.10
2023-02-13T17:56:01.520Z,20.17
2023-02-13T17:58:32.458Z,22.13
2023-02-13T18:01:04.354Z,20.27
2023-02-13T18:03:35.713Z,22.23
2023-02-13T18:06:13.259Z,21.10
2023-02-13T18:08:44.746Z,22.13
2023-02-13T18:11:15.776Z,19.87
2023-02-13T18:13:48.629Z,22.03
2023-02-13T18:16:21.949Z,18.83
2023-02-13T18:18:53.173Z,20.53
2023-02-13T18:21:25.828Z,19.63
2023-02-13T18:23:56.963Z,17.70
2023-02-13T18:26:28.081Z,21.73
2023-02-13T18:28:59.078Z,20.93
2023-02-13T18:31:30.996Z,24.73
2023-02-13T18:34:02.220Z,21.70
2023-02-13T18:36:33.311Z,19.17
2023-02-13T18:39:04.764Z,23.37
2023-02-13T18:41:35.862Z,21.87
2023-02-13T18:44:08.992Z,18.93
2023-02-13T18:46:40.198Z,20.70
2023-02-13T18:49:12.545Z,20.90
2023-02-13T18:51:44.610Z,21.37
2023-02-13T18:54:16.446Z,22.53
2023-02-13T18:56:47.570Z,19.67
2023-02-13T18:59:19.413Z,20.97
2023-02-13T19:01:51.186Z,17.43
2023-02-13T19:04:22.729Z,18.70
2023-02-13T19:06:54.230Z,20.70
2023-02-13T19:09:25.821Z,18.83
2023-02-13T19:11:57.148Z,18.93
2023-02-13T19:14:28.232Z,20.10
2023-02-13T19:16:59.407Z,20.07
2023-02-13T19:19:31.719Z,21.33
2023-02-13T19:22:02.694Z,20.80
2023-02-13T19:24:34.445Z,18.93
2023-02-13T19:27:06.333Z,20.67
2023-02-13T19:29:37.613Z,21.43
2023-02-13T19:32:09.070Z,17.87
2023-02-13T19:34:40.516Z,17.77
2023-02-13T19:37:11.388Z,20.10
2023-02-13T19:39:42.748Z,20.73
2023-02-13T19:42:13.797Z,19.60
2023-02-13T19:44:44.941Z,21.33
2023-02-13T19:47:16.647Z,17.53
2023-02-13T19:49:48.267Z,18.30
2023-02-13T19:52:19.112Z,17.50
2023-02-13T19:54:50.835Z,16.70
2023-02-13T19:57:22.762Z,17.53
2023-02-13T19:59:54.610Z,17.87
2023-02-13T20:02:25.983Z,21.70
2023-02-13T20:04:57.229Z,15.90
2023-02-13T20:07:28.165Z,14.07
2023-02-13T20:09:59.838Z,16.40
2023-02-13T20:12:31.480Z,15.93
2023-02-13T20:15:04.958Z,14.90
2023-02-13T20:17:39.136Z,15.40
2023-02-13T20:20:29.617Z,15.50
2023-02-13T20:23:00.706Z,14.00
2023-02-13T20:25:32.413Z,18.47
2023-02-13T20:28:03.661Z,19.20
2023-02-13T20:30:34.670Z,23.83
2023-02-13T20:33:05.993Z,16.60
2023-02-13T20:35:38.321Z,16.00
2023-02-13T20:38:09.450Z,15.67
2023-02-13T20:40:40.358Z,18.23
2023-02-13T20:43:11.281Z,15.83
2023-02-13T20:45:42.386Z,16.50
2023-02-13T20:48:13.363Z,18.97
2023-02-13T20:50:44.278Z,15.10
2023-02-13T20:53:15.374Z,17.10
2023-02-13T20:55:46.254Z,16.10
2023-02-13T20:58:17.168Z,18.47
2023-02-13T21:00:48.374Z,20.23
2023-02-13T21:03:19.180Z,17.97
2023-02-13T21:05:50.243Z,21.47
2023-02-13T21:08:21.664Z,20.30
2023-02-13T21:10:52.813Z,25.53
2023-02-13T21:13:23.964Z,22.50
2023-02-13T21:15:56.819Z,22.13
2023-02-13T21:18:28.172Z,20.50
2023-02-13T21:20:59.311Z,26.60
2023-02-13T21:23:30.559Z,31.17
2023-02-13T21:26:05.385Z,29.20
2023-02-13T21:28:37.310Z,23.50
2023-02-13T21:31:12.587Z,22.73
2023-02-13T21:33:43.466Z,22.93
2023-02-13T21:36:15.102Z,22.77
2023-02-13T21:38:45.815Z,23.30
2023-02-13T21:41:17.986Z,25.90
2023-02-13T21:43:49.525Z,32.37
2023-02-13T21:46:22.359Z,30.20
2023-02-13T21:48:57.039Z,24.40
2023-02-13T21:51:29.579Z,19.47
2023-02-13T21:54:01.346Z,20.57
2023-02-13T21:56:34.783Z,19.40
2023-02-13T21:59:06.657Z,18.63
2023-02-13T22:01:39.031Z,17.07
2023-02-13T22:04:11.425Z,20.37
2023-02-13T22:06:42.850Z,19.00
2023-02-13T22:09:15.778Z,18.43
2023-02-13T22:11:47.011Z,22.23
2023-02-13T22:14:19.334Z,24.03
2023-02-13T22:16:52.661Z,17.80
2023-02-13T22:19:23.773Z,20.47
2023-02-13T22:21:55.613Z,21.23
2023-02-13T22:24:27.917Z,21.37
2023-02-13T22:26:59.830Z,20.80
2023-02-13T22:29:30.943Z,20.43
2023-02-13T22:32:02.157Z,22.07
2023-02-13T22:34:33.302Z,18.20
2023-02-13T22:37:04.349Z,22.50
2023-02-13T22:39:35.394Z,19.20
2023-02-13T22:42:06.472Z,25.17
2023-02-13T22:44:37.234Z,18.27
2023-02-13T22:47:08.357Z,17.83
2023-02-13T22:49:39.483Z,24.13
2023-02-13T22:52:11.466Z,21.23
2023-02-13T22:54:42.411Z,21.87
2023-02-13T22:57:13.300Z,21.27
2023-02-13T22:59:44.843Z,23.90
2023-02-13T23:02:15.850Z,20.67
2023-02-13T23:04:48.309Z,18.27
2023-02-13T23:07:19.309Z,18.80
2023-02-13T23:09:50.945Z,17.90
2023-02-13T23:12:37.439Z,25.00
2023-02-13T23:15:11.323Z,21.90
2023-02-13T23:18:00.109Z,19.90
2023-02-13T23:20:31.373Z,21.90
2023-02-13T23:23:04.661Z,20.73
2023-02-13T23:25:35.266Z,20.77
2023-02-13T23:28:06.996Z,19.63
2023-02-13T23:30:37.942Z,19.00
2023-02-13T23:33:09.007Z,17.50
2023-02-13T23:35:40.137Z,19.43
2023-02-13T23:38:11.144Z,20.67
2023-02-13T23:40:41.987Z,21.35
2023-02-13T23:43:12.903Z,26.00
2023-02-13T23:45:44.212Z,17.77
2023-02-13T23:48:15.109Z,18.77
2023-02-13T23:50:46.024Z,31.82
2023-02-13T23:53:16.885Z,25.53
2023-02-13T23:55:47.910Z,22.40
2023-02-13T23:58:18.861Z,27.07
